createdAt,value
2018-07-31T00:00:05.738Z,977.95
2018-07-31T00:01:11.053Z,977.92
2018-07-31T00:02:05.594Z,977.95
2018-07-31T00:03:05.422Z,977.89
2018-07-31T00:04:05.371Z,977.89
2018-07-31T00:05:05.227Z,977.90
2018-07-31T00:06:05.980Z,977.84
2018-07-31T00:07:05.643Z,977.84
2018-07-31T00:08:05.450Z,977.93
2018-07-31T00:09:05.682Z,977.81
2018-07-31T00:10:05.443Z,977.84
2018-07-31T00:11:05.165Z,977.76
2018-07-31T00:12:05.439Z,977.87
2018-07-31T00:13:04.991Z,977.84
2018-07-31T00:14:10.674Z,977.87
2018-07-31T00:15:05.657Z,977.82
2018-07-31T00:16:05.600Z,977.85
2018-07-31T00:17:10.482Z,977.79
2018-07-31T00:18:05.839Z,977.88
2018-07-31T00:19:05.021Z,977.73
2018-07-31T00:20:05.522Z,977.85
2018-07-31T00:21:05.629Z,977.88
2018-07-31T00:22:05.674Z,977.82
2018-07-31T00:23:05.327Z,977.70
2018-07-31T00:24:05.405Z,977.85
2018-07-31T00:25:05.570Z,977.73
2018-07-31T00:26:05.196Z,977.76
2018-07-31T00:27:05.761Z,977.85
2018-07-31T00:28:05.575Z,977.85
2018-07-31T00:29:05.738Z,977.88
2018-07-31T00:30:05.514Z,977.74
2018-07-31T00:31:05.575Z,977.85
2018-07-31T00:32:05.565Z,977.80
2018-07-31T00:33:05.725Z,977.89
2018-07-31T00:34:05.463Z,977.71
2018-07-31T00:35:05.288Z,977.86
2018-07-31T00:36:05.130Z,977.83
2018-07-31T00:37:05.555Z,977.83
2018-07-31T00:38:05.253Z,977.74
2018-07-31T00:39:05.908Z,977.83
2018-07-31T00:40:04.997Z,977.77
2018-07-31T00:41:05.249Z,977.69
2018-07-31T00:42:05.280Z,977.78
2018-07-31T00:43:05.390Z,977.84
2018-07-31T00:44:05.793Z,977.61
2018-07-31T00:45:05.824Z,977.47
2018-07-31T00:46:06.914Z,977.61
2018-07-31T00:47:05.188Z,977.55
2018-07-31T00:48:05.699Z,977.53
2018-07-31T00:49:05.176Z,977.55
2018-07-31T00:50:05.805Z,977.75
2018-07-31T00:51:05.464Z,977.58
2018-07-31T00:52:10.425Z,977.58
2018-07-31T00:53:05.433Z,977.52
2018-07-31T00:54:05.613Z,977.52
2018-07-31T00:55:05.681Z,977.58
2018-07-31T00:56:05.437Z,977.66
2018-07-31T00:57:05.048Z,977.55
2018-07-31T00:58:05.235Z,977.78
2018-07-31T00:59:04.970Z,977.55
2018-07-31T01:00:05.469Z,977.66
2018-07-31T01:01:05.625Z,977.59
2018-07-31T01:02:05.564Z,977.67
2018-07-31T01:03:05.516Z,977.67
2018-07-31T01:04:05.314Z,977.47
2018-07-31T01:05:05.157Z,977.50
2018-07-31T01:06:05.834Z,977.53
2018-07-31T01:07:05.281Z,977.39
2018-07-31T01:08:05.497Z,977.45
2018-07-31T01:09:05.302Z,977.48
2018-07-31T01:10:04.919Z,977.48
2018-07-31T01:11:05.526Z,977.51
2018-07-31T01:12:05.594Z,977.57
2018-07-31T01:13:05.867Z,977.57
2018-07-31T01:14:05.405Z,977.51
2018-07-31T01:15:05.207Z,977.57
2018-07-31T01:16:05.072Z,977.57
2018-07-31T01:17:05.378Z,977.51
2018-07-31T01:18:05.140Z,977.45
2018-07-31T01:19:05.254Z,977.60
2018-07-31T01:20:05.056Z,977.62
2018-07-31T01:21:05.916Z,977.60
2018-07-31T01:22:05.839Z,977.48
2018-07-31T01:23:05.556Z,977.59
2018-07-31T01:24:05.004Z,977.48
2018-07-31T01:25:04.937Z,977.54
2018-07-31T01:26:05.564Z,977.45
2018-07-31T01:27:05.335Z,977.54
2018-07-31T01:28:05.279Z,977.54
2018-07-31T01:29:05.160Z,977.60
2018-07-31T01:30:05.116Z,977.54
2018-07-31T01:31:05.048Z,977.57
2018-07-31T01:32:05.068Z,977.54
2018-07-31T01:33:05.805Z,977.48
2018-07-31T01:34:05.753Z,977.51
2018-07-31T01:35:05.626Z,977.40
2018-07-31T01:36:05.298Z,977.57
2018-07-31T01:37:05.746Z,977.65
2018-07-31T01:38:05.524Z,977.49
2018-07-31T01:39:05.097Z,977.49
2018-07-31T01:40:05.579Z,977.40
2018-07-31T01:41:05.889Z,977.31
2018-07-31T01:42:05.779Z,977.40
2018-07-31T01:43:05.852Z,977.49
2018-07-31T01:44:05.866Z,977.37
2018-07-31T01:45:05.497Z,977.43
2018-07-31T01:46:05.684Z,977.40
2018-07-31T01:47:05.737Z,977.43
2018-07-31T01:48:06.274Z,977.40
2018-07-31T01:49:05.506Z,977.35
2018-07-31T01:50:05.274Z,977.44
2018-07-31T01:51:04.893Z,977.41
2018-07-31T01:52:05.352Z,977.47
2018-07-31T01:53:05.772Z,977.44
2018-07-31T01:54:05.132Z,977.38
2018-07-31T01:55:05.711Z,977.32
2018-07-31T01:56:05.564Z,977.29
2018-07-31T01:57:05.773Z,977.41
2018-07-31T01:58:05.759Z,977.56
2018-07-31T01:59:05.779Z,977.50
2018-07-31T02:00:05.765Z,977.44
2018-07-31T02:01:06.088Z,977.44
2018-07-31T02:02:05.363Z,977.36
2018-07-31T02:03:05.334Z,977.47
2018-07-31T02:04:06.024Z,977.33
2018-07-31T02:05:05.286Z,977.42
2018-07-31T02:06:05.493Z,977.30
2018-07-31T02:07:05.513Z,977.33
2018-07-31T02:08:05.707Z,977.30
2018-07-31T02:09:05.849Z,977.27
2018-07-31T02:10:05.470Z,977.21
2018-07-31T02:11:05.145Z,977.36
2018-07-31T02:12:05.567Z,977.36
2018-07-31T02:13:05.113Z,977.27
2018-07-31T02:14:05.380Z,977.30
2018-07-31T02:15:05.328Z,977.36
2018-07-31T02:16:05.002Z,977.30
2018-07-31T02:17:05.586Z,977.25
2018-07-31T02:18:05.216Z,977.45
2018-07-31T02:19:05.070Z,977.25
2018-07-31T02:20:05.045Z,977.25
2018-07-31T02:21:05.691Z,977.31
2018-07-31T02:22:06.253Z,977.16
2018-07-31T02:23:05.187Z,977.25
2018-07-31T02:24:05.604Z,977.19
2018-07-31T02:25:05.990Z,977.16
2018-07-31T02:26:05.877Z,977.37
2018-07-31T02:27:06.558Z,977.31
2018-07-31T02:28:06.047Z,977.19
2018-07-31T02:29:05.230Z,977.28
2018-07-31T02:30:05.664Z,977.28
2018-07-31T02:31:05.427Z,977.14
2018-07-31T02:32:05.390Z,977.25
2018-07-31T02:33:05.276Z,977.37
2018-07-31T02:34:05.894Z,977.25
2018-07-31T02:35:05.702Z,977.31
2018-07-31T02:36:05.492Z,977.31
2018-07-31T02:37:05.132Z,977.29
2018-07-31T02:38:05.650Z,977.31
2018-07-31T02:39:05.355Z,977.38
2018-07-31T02:40:05.865Z,977.35
2018-07-31T02:41:05.281Z,977.29
2018-07-31T02:42:05.537Z,977.29
2018-07-31T02:43:05.773Z,977.26
2018-07-31T02:44:05.308Z,977.44
2018-07-31T02:45:05.816Z,977.27
2018-07-31T02:46:05.785Z,977.33
2018-07-31T02:47:05.814Z,977.33
2018-07-31T02:48:04.943Z,977.33
2018-07-31T02:49:05.540Z,977.39
2018-07-31T02:50:06.263Z,977.33
2018-07-31T02:51:05.300Z,977.36
2018-07-31T02:52:05.026Z,977.27
2018-07-31T02:53:05.560Z,977.30
2018-07-31T02:54:05.228Z,977.27
2018-07-31T02:55:05.894Z,977.36
2018-07-31T02:56:04.928Z,977.27
2018-07-31T02:57:04.896Z,977.39
2018-07-31T02:58:06.130Z,977.30
2018-07-31T02:59:05.432Z,977.33
2018-07-31T03:00:05.285Z,977.27
2018-07-31T03:01:04.956Z,977.36
2018-07-31T03:02:05.728Z,977.18
2018-07-31T03:03:05.117Z,977.24
2018-07-31T03:04:05.118Z,977.33
2018-07-31T03:05:05.251Z,977.33
2018-07-31T03:06:04.999Z,977.22
2018-07-31T03:07:05.519Z,977.33
2018-07-31T03:08:05.132Z,977.45
2018-07-31T03:09:05.227Z,977.39
2018-07-31T03:10:05.504Z,977.25
2018-07-31T03:11:05.453Z,977.25
2018-07-31T03:12:05.708Z,977.33
2018-07-31T03:13:06.025Z,977.28
2018-07-31T03:14:05.729Z,977.51
2018-07-31T03:15:05.815Z,977.34
2018-07-31T03:16:05.599Z,977.37
2018-07-31T03:17:05.598Z,977.34
2018-07-31T03:18:05.763Z,977.45
2018-07-31T03:19:05.659Z,977.40
2018-07-31T03:20:05.092Z,977.45
2018-07-31T03:21:05.491Z,977.45
2018-07-31T03:22:05.615Z,977.43
2018-07-31T03:23:05.425Z,977.45
2018-07-31T03:24:05.619Z,977.45
2018-07-31T03:25:05.544Z,977.45
2018-07-31T03:26:05.011Z,977.48
2018-07-31T03:27:05.829Z,977.42
2018-07-31T03:28:05.983Z,977.34
2018-07-31T03:29:05.813Z,977.45
2018-07-31T03:30:05.100Z,977.40
2018-07-31T03:31:05.744Z,977.48
2018-07-31T03:32:05.518Z,977.46
2018-07-31T03:33:05.388Z,977.51
2018-07-31T03:34:05.152Z,977.40
2018-07-31T03:35:06.230Z,977.43
2018-07-31T03:36:05.460Z,977.46
2018-07-31T03:37:05.726Z,977.49
2018-07-31T03:38:05.369Z,977.49
2018-07-31T03:39:05.665Z,977.43
2018-07-31T03:40:05.895Z,977.46
2018-07-31T03:41:05.820Z,977.46
2018-07-31T03:42:05.126Z,977.46
2018-07-31T03:43:10.905Z,977.55
2018-07-31T03:44:05.015Z,977.52
2018-07-31T03:45:05.314Z,977.55
2018-07-31T03:46:05.365Z,977.52
2018-07-31T03:47:06.193Z,977.66
2018-07-31T03:48:05.496Z,977.40
2018-07-31T03:49:05.916Z,977.66
2018-07-31T03:50:05.825Z,977.46
2018-07-31T03:51:04.983Z,977.49
2018-07-31T03:52:05.740Z,977.40
2018-07-31T03:53:05.207Z,977.52
2018-07-31T03:54:06.205Z,977.43
2018-07-31T03:55:05.276Z,977.69
2018-07-31T03:56:05.163Z,977.52
2018-07-31T03:57:05.221Z,977.52
2018-07-31T03:58:05.336Z,977.55
2018-07-31T03:59:05.649Z,977.55
2018-07-31T04:00:05.276Z,977.66
2018-07-31T04:01:05.429Z,977.61
2018-07-31T04:02:05.658Z,977.58
2018-07-31T04:03:05.047Z,977.61
2018-07-31T04:04:05.660Z,977.55
2018-07-31T04:05:05.859Z,977.66
2018-07-31T04:06:05.856Z,977.69
2018-07-31T04:07:06.493Z,977.61
2018-07-31T04:08:05.809Z,977.58
2018-07-31T04:09:04.970Z,977.58
2018-07-31T04:10:06.154Z,977.66
2018-07-31T04:11:05.536Z,977.66
2018-07-31T04:12:06.191Z,977.55
2018-07-31T04:13:05.417Z,977.55
2018-07-31T04:14:05.647Z,977.66
2018-07-31T04:15:05.082Z,977.61
2018-07-31T04:16:05.108Z,977.69
2018-07-31T04:17:05.658Z,977.68
2018-07-31T04:18:04.875Z,977.66
2018-07-31T04:19:05.099Z,977.77
2018-07-31T04:20:05.130Z,977.71
2018-07-31T04:21:05.648Z,977.68
2018-07-31T04:22:05.762Z,977.49
2018-07-31T04:23:05.830Z,977.57
2018-07-31T04:24:05.591Z,977.77
2018-07-31T04:25:05.313Z,977.60
2018-07-31T04:26:05.840Z,977.71
2018-07-31T04:27:05.847Z,977.74
2018-07-31T04:28:05.886Z,977.54
2018-07-31T04:29:06.139Z,977.68
2018-07-31T04:30:05.918Z,977.51
2018-07-31T04:31:05.384Z,977.56
2018-07-31T04:32:05.272Z,977.50
2018-07-31T04:33:04.970Z,977.56
2018-07-31T04:34:05.635Z,977.66
2018-07-31T04:35:05.610Z,977.58
2018-07-31T04:36:05.756Z,977.55
2018-07-31T04:37:05.744Z,977.74
2018-07-31T04:38:05.302Z,977.60
2018-07-31T04:39:05.848Z,977.57
2018-07-31T04:40:09.966Z,977.65
2018-07-31T04:41:05.293Z,977.65
2018-07-31T04:42:05.681Z,977.70
2018-07-31T04:43:05.674Z,977.67
2018-07-31T04:44:05.624Z,977.65
2018-07-31T04:45:11.630Z,977.76
2018-07-31T04:46:05.610Z,977.70
2018-07-31T04:47:05.867Z,977.54
2018-07-31T04:48:05.763Z,977.62
2018-07-31T04:49:05.670Z,977.70
2018-07-31T04:50:05.164Z,977.70
2018-07-31T04:51:04.877Z,977.70
2018-07-31T04:52:05.596Z,977.66
2018-07-31T04:53:10.493Z,977.69
2018-07-31T04:54:05.575Z,977.68
2018-07-31T04:55:05.825Z,977.68
2018-07-31T04:56:06.151Z,977.68
2018-07-31T04:57:05.023Z,977.85
2018-07-31T04:58:06.149Z,977.62
2018-07-31T04:59:05.494Z,977.75
2018-07-31T05:00:05.453Z,977.78
2018-07-31T05:01:10.361Z,977.71
2018-07-31T05:02:05.464Z,977.73
2018-07-31T05:03:05.433Z,977.59
2018-07-31T05:04:05.269Z,977.59
2018-07-31T05:05:05.817Z,977.61
2018-07-31T05:06:10.626Z,977.72
2018-07-31T05:07:05.568Z,977.69
2018-07-31T05:08:04.985Z,977.74
2018-07-31T05:09:06.397Z,977.68
2018-07-31T05:10:15.340Z,977.80
2018-07-31T05:11:05.287Z,977.71
2018-07-31T05:12:05.625Z,977.60
2018-07-31T05:13:05.760Z,977.68
2018-07-31T05:14:10.753Z,977.73
2018-07-31T05:15:06.316Z,977.79
2018-07-31T05:16:05.366Z,977.72
2018-07-31T05:17:05.115Z,977.61
2018-07-31T05:18:05.257Z,977.54
2018-07-31T05:19:05.687Z,977.73
2018-07-31T05:20:05.631Z,977.87
2018-07-31T05:21:05.450Z,977.72
2018-07-31T05:22:05.319Z,977.71
2018-07-31T05:23:05.197Z,977.76
2018-07-31T05:24:06.272Z,977.78
2018-07-31T05:25:05.557Z,977.75
2018-07-31T05:26:05.295Z,977.77
2018-07-31T05:27:10.339Z,977.85
2018-07-31T05:28:10.287Z,977.87
2018-07-31T05:29:05.465Z,977.83
2018-07-31T05:30:05.229Z,977.80
2018-07-31T05:31:05.879Z,977.82
2018-07-31T05:32:05.744Z,977.85
2018-07-31T05:33:05.152Z,977.90
2018-07-31T05:34:06.055Z,977.93
2018-07-31T05:35:05.055Z,977.92
2018-07-31T05:36:05.036Z,977.89
2018-07-31T05:37:05.851Z,977.80
2018-07-31T05:38:05.259Z,977.85
2018-07-31T05:39:05.671Z,977.94
2018-07-31T05:40:05.234Z,977.85
2018-07-31T05:41:05.005Z,978.02
2018-07-31T05:42:05.690Z,977.84
2018-07-31T05:43:05.498Z,977.89
2018-07-31T05:44:05.739Z,977.83
2018-07-31T05:45:05.186Z,977.97
2018-07-31T05:46:05.172Z,977.97
2018-07-31T05:47:05.361Z,977.99
2018-07-31T05:48:05.628Z,977.90
2018-07-31T05:49:05.945Z,977.89
2018-07-31T05:50:05.412Z,977.89
2018-07-31T05:51:06.193Z,977.97
2018-07-31T05:52:06.051Z,977.97
2018-07-31T05:53:05.055Z,977.88
2018-07-31T05:54:05.730Z,978.05
2018-07-31T05:55:05.843Z,978.02
2018-07-31T05:56:05.160Z,978.02
2018-07-31T05:57:05.038Z,977.95
2018-07-31T05:58:05.905Z,977.98
2018-07-31T05:59:05.311Z,978.03
2018-07-31T06:00:06.013Z,977.97
2018-07-31T06:01:06.307Z,977.96
2018-07-31T06:02:05.105Z,977.96
2018-07-31T06:03:05.546Z,977.86
2018-07-31T06:04:05.444Z,977.89
2018-07-31T06:05:10.335Z,977.94
2018-07-31T06:06:05.531Z,977.88
2018-07-31T06:07:05.964Z,977.94
2018-07-31T06:08:04.986Z,977.81
2018-07-31T06:09:05.356Z,977.84
2018-07-31T06:10:06.042Z,977.95
2018-07-31T06:11:05.381Z,977.92
2018-07-31T06:12:05.461Z,978.06
2018-07-31T06:13:05.881Z,977.91
2018-07-31T06:14:05.806Z,977.88
2018-07-31T06:15:05.994Z,977.90
2018-07-31T06:16:05.765Z,977.90
2018-07-31T06:17:09.313Z,977.95
2018-07-31T06:18:05.552Z,977.92
2018-07-31T06:19:05.729Z,977.89
2018-07-31T06:20:05.558Z,977.95
2018-07-31T06:21:05.717Z,977.94
2018-07-31T06:22:05.223Z,978.03
2018-07-31T06:23:05.267Z,978.03
2018-07-31T06:24:05.865Z,978.02
2018-07-31T06:25:05.505Z,978.02
2018-07-31T06:26:05.626Z,977.96
2018-07-31T06:27:05.891Z,978.01
2018-07-31T06:28:04.908Z,978.04
2018-07-31T06:29:06.372Z,978.10
2018-07-31T06:30:05.434Z,978.03
2018-07-31T06:31:05.214Z,977.91
2018-07-31T06:32:05.080Z,977.91
2018-07-31T06:33:05.423Z,978.02
2018-07-31T06:34:05.084Z,978.02
2018-07-31T06:35:04.969Z,977.99
2018-07-31T06:36:05.190Z,978.17
2018-07-31T06:37:05.374Z,978.10
2018-07-31T06:38:05.354Z,978.16
2018-07-31T06:39:05.074Z,978.19
2018-07-31T06:40:06.245Z,978.07
2018-07-31T06:41:05.332Z,978.15
2018-07-31T06:42:10.323Z,978.12
2018-07-31T06:43:05.757Z,977.97
2018-07-31T06:44:05.478Z,978.15
2018-07-31T06:45:05.282Z,978.21
2018-07-31T06:46:05.325Z,978.00
2018-07-31T06:47:07.331Z,978.20
2018-07-31T06:48:05.519Z,978.02
2018-07-31T06:49:05.713Z,978.20
2018-07-31T06:50:05.209Z,978.14
2018-07-31T06:51:05.361Z,978.19
2018-07-31T06:52:05.792Z,978.25
2018-07-31T06:53:05.519Z,978.19
2018-07-31T06:54:05.334Z,978.19
2018-07-31T06:55:05.002Z,978.10
2018-07-31T06:56:05.885Z,978.15
2018-07-31T06:57:05.921Z,978.30
2018-07-31T06:58:06.839Z,978.12
2018-07-31T06:59:05.576Z,978.12
2018-07-31T07:00:05.678Z,978.12
2018-07-31T07:01:08.841Z,978.18
2018-07-31T07:02:05.952Z,978.24
2018-07-31T07:03:05.856Z,978.20
2018-07-31T07:04:05.854Z,978.23
2018-07-31T07:05:05.220Z,978.20
2018-07-31T07:06:05.074Z,978.26
2018-07-31T07:07:05.728Z,978.32
2018-07-31T07:08:05.495Z,978.16
2018-07-31T07:09:05.866Z,978.22
2018-07-31T07:10:06.119Z,978.19
2018-07-31T07:11:05.523Z,978.21
2018-07-31T07:12:05.848Z,978.24
2018-07-31T07:13:05.901Z,978.21
2018-07-31T07:14:05.392Z,978.15
2018-07-31T07:15:05.191Z,978.29
2018-07-31T07:16:05.420Z,978.14
2018-07-31T07:17:05.278Z,978.29
2018-07-31T07:18:06.601Z,978.14
2018-07-31T07:19:05.463Z,978.20
2018-07-31T07:20:05.572Z,978.25
2018-07-31T07:21:05.836Z,978.19
2018-07-31T07:22:05.091Z,978.13
2018-07-31T07:23:05.927Z,978.19
2018-07-31T07:24:05.782Z,978.28
2018-07-31T07:25:05.643Z,978.25
2018-07-31T07:26:05.329Z,978.19
2018-07-31T07:27:05.843Z,978.16
2018-07-31T07:28:05.343Z,978.22
2018-07-31T07:29:05.486Z,978.19
2018-07-31T07:30:05.950Z,978.30
2018-07-31T07:31:05.220Z,978.30
2018-07-31T07:32:05.788Z,978.27
2018-07-31T07:33:05.348Z,978.36
2018-07-31T07:34:05.458Z,978.27
2018-07-31T07:35:05.045Z,978.33
2018-07-31T07:36:05.465Z,978.21
2018-07-31T07:37:07.014Z,978.24
2018-07-31T07:38:05.599Z,978.26
2018-07-31T07:39:05.614Z,978.26
2018-07-31T07:40:05.898Z,978.29
2018-07-31T07:41:05.786Z,978.26
2018-07-31T07:42:05.391Z,978.38
2018-07-31T07:43:05.655Z,978.23
2018-07-31T07:44:05.668Z,978.29
2018-07-31T07:45:05.291Z,978.23
2018-07-31T07:46:05.702Z,978.28
2018-07-31T07:47:05.715Z,978.28
2018-07-31T07:48:05.714Z,978.25
2018-07-31T07:49:05.546Z,978.34
2018-07-31T07:50:05.346Z,978.37
2018-07-31T07:51:04.963Z,978.22
2018-07-31T07:52:05.082Z,978.25
2018-07-31T07:53:05.566Z,978.33
2018-07-31T07:54:05.853Z,978.30
2018-07-31T07:55:05.004Z,978.27
2018-07-31T07:56:05.490Z,978.24
2018-07-31T07:57:05.124Z,978.24
2018-07-31T07:58:05.001Z,978.18
2018-07-31T07:59:05.882Z,978.27
2018-07-31T08:00:05.857Z,978.35
2018-07-31T08:01:05.121Z,978.26
2018-07-31T08:02:06.209Z,978.32
2018-07-31T08:03:05.325Z,978.20
2018-07-31T08:04:05.807Z,978.29
2018-07-31T08:05:05.769Z,978.17
2018-07-31T08:06:05.493Z,978.20
2018-07-31T08:07:05.151Z,978.32
2018-07-31T08:08:05.743Z,978.22
2018-07-31T08:09:04.939Z,978.22
2018-07-31T08:10:05.450Z,978.28
2018-07-31T08:11:06.484Z,978.28
2018-07-31T08:12:05.474Z,978.37
2018-07-31T08:13:05.337Z,978.34
2018-07-31T08:14:05.550Z,978.34
2018-07-31T08:15:05.781Z,978.27
2018-07-31T08:16:05.070Z,978.36
2018-07-31T08:17:05.829Z,978.30
2018-07-31T08:18:05.927Z,978.24
2018-07-31T08:19:06.340Z,978.27
2018-07-31T08:20:06.126Z,978.30
2018-07-31T08:21:05.239Z,978.24
2018-07-31T08:22:05.305Z,978.27
2018-07-31T08:23:05.713Z,978.30
2018-07-31T08:24:10.301Z,978.26
2018-07-31T08:25:10.575Z,978.26
2018-07-31T08:26:05.156Z,978.20
2018-07-31T08:27:05.174Z,978.35
2018-07-31T08:28:05.747Z,978.29
2018-07-31T08:29:05.291Z,978.26
2018-07-31T08:30:05.563Z,978.41
2018-07-31T08:31:10.216Z,978.29
2018-07-31T08:32:05.194Z,978.20
2018-07-31T08:33:05.436Z,978.23
2018-07-31T08:34:05.526Z,978.29
2018-07-31T08:35:05.807Z,978.41
2018-07-31T08:36:05.853Z,978.35
2018-07-31T08:37:05.682Z,978.29
2018-07-31T08:38:10.747Z,978.32
2018-07-31T08:39:05.070Z,978.35
2018-07-31T08:40:05.203Z,978.29
2018-07-31T08:41:05.281Z,978.26
2018-07-31T08:42:05.226Z,978.29
2018-07-31T08:43:05.074Z,978.38
2018-07-31T08:44:04.991Z,978.35
2018-07-31T08:45:05.835Z,978.38
2018-07-31T08:46:05.946Z,978.32
2018-07-31T08:47:05.163Z,978.26
2018-07-31T08:48:05.615Z,978.35
2018-07-31T08:49:05.625Z,978.35
2018-07-31T08:50:10.239Z,978.40
2018-07-31T08:51:05.072Z,978.34
2018-07-31T08:52:05.129Z,978.43
2018-07-31T08:53:05.840Z,978.48
2018-07-31T08:54:05.744Z,978.34
2018-07-31T08:55:05.067Z,978.34
2018-07-31T08:56:05.185Z,978.40
2018-07-31T08:57:05.510Z,978.37
2018-07-31T08:58:05.626Z,978.37
2018-07-31T08:59:05.490Z,978.31
2018-07-31T09:00:05.841Z,978.33
2018-07-31T09:01:05.332Z,978.36
2018-07-31T09:02:05.208Z,978.39
2018-07-31T09:03:05.968Z,978.47
2018-07-31T09:04:05.330Z,978.36
2018-07-31T09:05:05.464Z,978.36
2018-07-31T09:06:06.442Z,978.30
2018-07-31T09:07:05.366Z,978.33
2018-07-31T09:08:05.435Z,978.30
2018-07-31T09:09:05.631Z,978.28
2018-07-31T09:10:09.105Z,978.31
2018-07-31T09:11:05.235Z,978.31
2018-07-31T09:12:05.198Z,978.31
2018-07-31T09:13:04.895Z,978.31
2018-07-31T09:14:05.865Z,978.27
2018-07-31T09:15:05.616Z,978.27
2018-07-31T09:16:05.356Z,978.21
2018-07-31T09:17:10.205Z,978.21
2018-07-31T09:18:05.420Z,978.30
2018-07-31T09:19:05.611Z,978.18
2018-07-31T09:20:05.516Z,978.33
2018-07-31T09:21:10.862Z,978.24
2018-07-31T09:22:05.739Z,978.21
2018-07-31T09:23:05.683Z,978.15
2018-07-31T09:24:05.566Z,978.25
2018-07-31T09:25:05.187Z,978.28
2018-07-31T09:26:05.054Z,978.31
2018-07-31T09:27:05.776Z,978.25
2018-07-31T09:28:05.957Z,978.28
2018-07-31T09:29:05.543Z,978.25
2018-07-31T09:30:05.142Z,978.34
2018-07-31T09:31:05.348Z,978.37
2018-07-31T09:32:05.096Z,978.07
2018-07-31T09:33:05.978Z,978.13
2018-07-31T09:34:05.241Z,978.35
2018-07-31T09:35:05.388Z,978.35
2018-07-31T09:36:04.888Z,978.05
2018-07-31T09:37:05.581Z,978.05
2018-07-31T09:38:10.566Z,978.18
2018-07-31T09:39:04.958Z,978.06
2018-07-31T09:40:05.125Z,978.18
2018-07-31T09:41:05.454Z,978.21
2018-07-31T09:42:09.905Z,978.12
2018-07-31T09:43:06.431Z,978.03
2018-07-31T09:44:05.133Z,978.04
2018-07-31T09:45:05.515Z,978.10
2018-07-31T09:46:05.586Z,977.98
2018-07-31T09:47:10.471Z,978.01
2018-07-31T09:48:05.446Z,977.92
2018-07-31T09:49:05.289Z,977.86
2018-07-31T09:50:05.232Z,977.89
2018-07-31T09:51:05.726Z,978.06
2018-07-31T09:52:05.698Z,978.06
2018-07-31T09:53:05.577Z,978.00
2018-07-31T09:54:05.694Z,978.03
2018-07-31T09:55:10.110Z,978.00
2018-07-31T09:56:05.505Z,978.12
2018-07-31T09:57:05.733Z,978.06
2018-07-31T09:58:05.481Z,978.08
2018-07-31T09:59:05.987Z,978.02
2018-07-31T10:00:05.528Z,977.90
2018-07-31T10:01:05.459Z,977.96
2018-07-31T10:02:05.089Z,977.93
2018-07-31T10:03:05.869Z,978.08
2018-07-31T10:04:05.304Z,977.92
2018-07-31T10:05:06.040Z,977.95
2018-07-31T10:06:05.842Z,978.01
2018-07-31T10:07:06.031Z,978.01
2018-07-31T10:08:06.010Z,977.88
2018-07-31T10:09:06.120Z,977.85
2018-07-31T10:10:05.138Z,978.03
2018-07-31T10:11:05.320Z,977.96
2018-07-31T10:12:06.221Z,977.96
2018-07-31T10:13:05.607Z,977.96
2018-07-31T10:14:05.476Z,977.90
2018-07-31T10:15:05.923Z,977.93
2018-07-31T10:16:05.616Z,977.90
2018-07-31T10:17:05.338Z,977.87
2018-07-31T10:18:05.928Z,977.87
2018-07-31T10:19:04.945Z,977.99
2018-07-31T10:20:06.367Z,977.87
2018-07-31T10:21:05.986Z,977.96
2018-07-31T10:22:10.816Z,977.97
2018-07-31T10:23:05.682Z,977.94
2018-07-31T10:24:10.534Z,977.88
2018-07-31T10:25:05.625Z,977.95
2018-07-31T10:26:05.923Z,977.98
2018-07-31T10:27:05.185Z,977.86
2018-07-31T10:28:05.589Z,978.01
2018-07-31T10:29:06.232Z,977.90
2018-07-31T10:30:05.829Z,977.87
2018-07-31T10:31:05.932Z,977.91
2018-07-31T10:32:05.539Z,977.88
2018-07-31T10:33:05.856Z,977.97
2018-07-31T10:34:05.209Z,977.89
2018-07-31T10:35:04.980Z,977.89
2018-07-31T10:36:05.782Z,977.95
2018-07-31T10:37:05.153Z,978.07
2018-07-31T10:38:06.353Z,977.95
2018-07-31T10:39:09.962Z,977.80
2018-07-31T10:40:05.635Z,977.86
2018-07-31T10:41:05.482Z,977.86
2018-07-31T10:42:10.465Z,977.89
2018-07-31T10:43:05.768Z,977.95
2018-07-31T10:44:05.663Z,977.91
2018-07-31T10:45:05.448Z,977.91
2018-07-31T10:46:05.298Z,977.94
2018-07-31T10:47:06.238Z,977.87
2018-07-31T10:48:05.545Z,977.96
2018-07-31T10:49:05.610Z,977.86
2018-07-31T10:50:05.606Z,978.04
2018-07-31T10:51:05.993Z,977.92
2018-07-31T10:52:05.848Z,977.88
2018-07-31T10:53:04.908Z,977.85
2018-07-31T10:54:05.452Z,977.79
2018-07-31T10:55:05.695Z,977.81
2018-07-31T10:56:05.574Z,977.93
2018-07-31T10:57:05.234Z,977.78
2018-07-31T10:58:05.577Z,977.81
2018-07-31T10:59:05.719Z,977.87
2018-07-31T11:00:05.635Z,977.90
2018-07-31T11:01:05.115Z,977.84
2018-07-31T11:02:08.429Z,977.87
2018-07-31T11:03:05.968Z,977.84
2018-07-31T11:04:05.359Z,977.72
2018-07-31T11:05:05.412Z,977.81
2018-07-31T11:06:05.155Z,977.78
2018-07-31T11:07:05.318Z,977.66
2018-07-31T11:08:05.937Z,977.77
2018-07-31T11:09:05.428Z,977.71
2018-07-31T11:10:05.478Z,977.74
2018-07-31T11:11:05.130Z,977.83
2018-07-31T11:12:05.236Z,977.68
2018-07-31T11:13:05.225Z,977.74
2018-07-31T11:14:07.070Z,977.74
2018-07-31T11:15:05.291Z,977.71
2018-07-31T11:16:05.549Z,977.68
2018-07-31T11:17:05.353Z,977.77
2018-07-31T11:18:05.860Z,977.71
2018-07-31T11:19:05.739Z,977.68
2018-07-31T11:20:04.880Z,977.68
2018-07-31T11:21:06.101Z,977.60
2018-07-31T11:22:05.046Z,977.60
2018-07-31T11:23:05.400Z,977.60
2018-07-31T11:24:05.360Z,977.59
2018-07-31T11:25:05.140Z,977.59
2018-07-31T11:26:10.871Z,977.59
2018-07-31T11:27:05.008Z,977.59
2018-07-31T11:28:04.938Z,977.56
2018-07-31T11:29:05.189Z,977.67
2018-07-31T11:30:04.953Z,977.55
2018-07-31T11:31:05.221Z,977.55
2018-07-31T11:32:05.588Z,977.46
2018-07-31T11:33:06.061Z,977.49
2018-07-31T11:34:05.130Z,977.58
2018-07-31T11:35:05.264Z,977.52
2018-07-31T11:36:05.373Z,977.58
2018-07-31T11:37:05.583Z,977.58
2018-07-31T11:38:05.835Z,977.52
2018-07-31T11:39:06.045Z,977.48
2018-07-31T11:40:05.194Z,977.54
2018-07-31T11:41:05.376Z,977.54
2018-07-31T11:42:05.019Z,977.54
2018-07-31T11:43:05.183Z,977.57
2018-07-31T11:44:05.399Z,977.48
2018-07-31T11:45:05.570Z,977.39
2018-07-31T11:46:05.681Z,977.51
2018-07-31T11:47:05.181Z,977.42
2018-07-31T11:48:05.299Z,977.45
2018-07-31T11:49:05.976Z,977.45
2018-07-31T11:50:06.093Z,977.51
2018-07-31T11:51:06.757Z,977.45
2018-07-31T11:52:05.209Z,977.38
2018-07-31T11:53:05.156Z,977.41
2018-07-31T11:54:05.673Z,977.41
2018-07-31T11:55:04.955Z,977.38
2018-07-31T11:56:05.848Z,977.32
2018-07-31T11:57:05.463Z,977.35
2018-07-31T11:58:05.321Z,977.38
2018-07-31T11:59:05.225Z,977.35
2018-07-31T12:00:05.557Z,977.53
2018-07-31T12:01:05.310Z,977.41
2018-07-31T12:02:05.334Z,977.39
2018-07-31T12:03:05.885Z,977.33
2018-07-31T12:04:05.460Z,977.30
2018-07-31T12:05:05.735Z,977.36
2018-07-31T12:06:05.192Z,977.39
2018-07-31T12:07:05.802Z,977.39
2018-07-31T12:08:05.177Z,977.36
2018-07-31T12:09:05.262Z,977.28
2018-07-31T12:10:05.111Z,977.40
2018-07-31T12:11:05.185Z,977.43
2018-07-31T12:12:05.628Z,977.37
2018-07-31T12:13:05.472Z,977.34
2018-07-31T12:14:05.861Z,977.37
2018-07-31T12:15:05.864Z,977.46
2018-07-31T12:16:05.930Z,977.46
2018-07-31T12:17:05.871Z,977.52
2018-07-31T12:18:05.351Z,977.49
2018-07-31T12:19:05.132Z,977.49
2018-07-31T12:20:05.719Z,977.55
2018-07-31T12:21:05.817Z,977.43
2018-07-31T12:22:05.891Z,977.49
2018-07-31T12:23:05.657Z,977.40
2018-07-31T12:24:05.656Z,977.43
2018-07-31T12:25:05.657Z,977.45
2018-07-31T12:26:05.388Z,977.39
2018-07-31T12:27:05.793Z,977.45
2018-07-31T12:28:05.656Z,977.42